sensor_id;sensor_type;location;lat;lon;timestamp;P1;durP1;ratioP1;P2;durP2;ratioP2
26946;SDS011;14501;52.282;10.560;2023-01-19T00:01:23;10.57;;;5.88;;
26946;SDS011;14501;52.282;10.560;2023-01-19T00:03:49;10.23;;;6.20;;
26946;SDS011;14501;52.282;10.560;2023-01-19T00:06:15;10.30;;;5.38;;
26946;SDS011;14501;52.282;10.560;2023-01-19T00:08:41;8.90;;;5.57;;
26946;SDS011;14501;52.282;10.560;2023-01-19T00:11:09;9.02;;;5.32;;
26946;SDS011;14501;52.282;10.560;2023-01-19T00:13:36;10.77;;;5.75;;
26946;SDS011;14501;52.282;10.560;2023-01-19T00:16:02;10.38;;;5.10;;
26946;SDS011;14501;52.282;10.560;2023-01-19T00:18:28;9.40;;;5.47;;
26946;SDS011;14501;52.282;10.560;2023-01-19T00:20:54;10.85;;;6.03;;
26946;SDS011;14501;52.282;10.560;2023-01-19T00:23:19;8.63;;;5.45;;
26946;SDS011;14501;52.282;10.560;2023-01-19T00:25:45;10.13;;;5.78;;
26946;SDS011;14501;52.282;10.560;2023-01-19T00:28:13;12.20;;;5.40;;
26946;SDS011;14501;52.282;10.560;2023-01-19T00:30:40;8.90;;;5.25;;
26946;SDS011;14501;52.282;10.560;2023-01-19T00:33:07;10.77;;;5.20;;
26946;SDS011;14501;52.282;10.560;2023-01-19T00:35:34;12.68;;;5.85;;
26946;SDS011;14501;52.282;10.560;2023-01-19T00:38:00;11.02;;;5.63;;
26946;SDS011;14501;52.282;10.560;2023-01-19T00:40:26;9.95;;;5.63;;
26946;SDS011;14501;52.282;10.560;2023-01-19T00:42:52;12.02;;;6.20;;
26946;SDS011;14501;52.282;10.560;2023-01-19T00:45:19;9.18;;;5.50;;
26946;SDS011;14501;52.282;10.560;2023-01-19T00:47:46;10.70;;;5.40;;
26946;SDS011;14501;52.282;10.560;2023-01-19T00:50:14;12.18;;;5.45;;
26946;SDS011;14501;52.282;10.560;2023-01-19T00:52:41;11.88;;;5.72;;
26946;SDS011;14501;52.282;10.560;2023-01-19T00:55:08;12.90;;;5.82;;
26946;SDS011;14501;52.282;10.560;2023-01-19T00:57:36;11.13;;;5.53;;
26946;SDS011;14501;52.282;10.560;2023-01-19T01:00:04;13.00;;;6.13;;
26946;SDS011;14501;52.282;10.560;2023-01-19T01:02:32;9.73;;;5.40;;
26946;SDS011;14501;52.282;10.560;2023-01-19T01:04:57;7.78;;;5.60;;
26946;SDS011;14501;52.282;10.560;2023-01-19T01:07:26;7.93;;;5.20;;
26946;SDS011;14501;52.282;10.560;2023-01-19T01:09:53;9.32;;;5.10;;
26946;SDS011;14501;52.282;10.560;2023-01-19T01:12:20;10.38;;;5.18;;
26946;SDS011;14501;52.282;10.560;2023-01-19T01:14:46;9.70;;;5.25;;
26946;SDS011;14501;52.282;10.560;2023-01-19T01:17:12;8.93;;;5.63;;
26946;SDS011;14501;52.282;10.560;2023-01-19T01:19:41;8.55;;;5.35;;
26946;SDS011;14501;52.282;10.560;2023-01-19T01:22:08;8.30;;;5.20;;
26946;SDS011;14501;52.282;10.560;2023-01-19T01:24:34;8.35;;;4.50;;
26946;SDS011;14501;52.282;10.560;2023-01-19T01:27:00;8.20;;;5.60;;
26946;SDS011;14501;52.282;10.560;2023-01-19T01:29:25;8.57;;;5.10;;
26946;SDS011;14501;52.282;10.560;2023-01-19T01:31:51;8.77;;;5.00;;
26946;SDS011;14501;52.282;10.560;2023-01-19T01:34:17;12.30;;;5.30;;
26946;SDS011;14501;52.282;10.560;2023-01-19T01:36:43;8.05;;;5.18;;
26946;SDS011;14501;52.282;10.560;2023-01-19T01:39:09;7.45;;;4.68;;
26946;SDS011;14501;52.282;10.560;2023-01-19T01:41:35;8.15;;;4.50;;
26946;SDS011;14501;52.282;10.560;2023-01-19T01:44:01;9.13;;;5.63;;
26946;SDS011;14501;52.282;10.560;2023-01-19T01:46:30;10.45;;;4.90;;
26946;SDS011;14501;52.282;10.560;2023-01-19T01:49:00;8.43;;;4.50;;
26946;SDS011;14501;52.282;10.560;2023-01-19T01:51:41;8.73;;;4.90;;
26946;SDS011;14501;52.282;10.560;2023-01-19T01:56:54;9.52;;;4.93;;
26946;SDS011;14501;52.282;10.560;2023-01-19T01:59:28;8.27;;;4.45;;
26946;SDS011;14501;52.282;10.560;2023-01-19T02:02:22;8.57;;;4.80;;
26946;SDS011;14501;52.282;10.560;2023-01-19T02:05:11;8.20;;;4.55;;
26946;SDS011;14501;52.282;10.560;2023-01-19T02:07:57;11.80;;;5.43;;
26946;SDS011;14501;52.282;10.560;2023-01-19T02:10:48;7.75;;;4.60;;
26946;SDS011;14501;52.282;10.560;2023-01-19T02:13:35;11.90;;;5.50;;
26946;SDS011;14501;52.282;10.560;2023-01-19T02:16:07;9.40;;;4.90;;
26946;SDS011;14501;52.282;10.560;2023-01-19T02:18:34;11.68;;;5.20;;
26946;SDS011;14501;52.282;10.560;2023-01-19T02:23:45;7.05;;;4.88;;
26946;SDS011;14501;52.282;10.560;2023-01-19T02:26:34;7.38;;;4.93;;
26946;SDS011;14501;52.282;10.560;2023-01-19T02:29:09;10.77;;;5.35;;
26946;SDS011;14501;52.282;10.560;2023-01-19T02:31:37;6.25;;;4.30;;
26946;SDS011;14501;52.282;10.560;2023-01-19T02:34:04;10.82;;;5.65;;
26946;SDS011;14501;52.282;10.560;2023-01-19T02:36:40;9.18;;;4.75;;
26946;SDS011;14501;52.282;10.560;2023-01-19T02:40:06;9.68;;;5.63;;
26946;SDS011;14501;52.282;10.560;2023-01-19T02:42:12;9.60;;;5.47;;
26946;SDS011;14501;52.282;10.560;2023-01-19T02:44:43;12.35;;;4.97;;
26946;SDS011;14501;52.282;10.560;2023-01-19T02:47:12;8.02;;;4.93;;
26946;SDS011;14501;52.282;10.560;2023-01-19T02:49:38;6.88;;;4.32;;
26946;SDS011;14501;52.282;10.560;2023-01-19T02:52:04;6.63;;;4.32;;
26946;SDS011;14501;52.282;10.560;2023-01-19T03:10:56;7.82;;;5.07;;
26946;SDS011;14501;52.282;10.560;2023-01-19T03:19:11;8.68;;;5.28;;
26946;SDS011;14501;52.282;10.560;2023-01-19T03:21:51;8.23;;;4.85;;
26946;SDS011;14501;52.282;10.560;2023-01-19T03:24:29;7.93;;;4.93;;
26946;SDS011;14501;52.282;10.560;2023-01-19T03:27:01;11.15;;;5.03;;
26946;SDS011;14501;52.282;10.560;2023-01-19T03:29:31;12.05;;;5.28;;
26946;SDS011;14501;52.282;10.560;2023-01-19T03:32:02;8.70;;;5.32;;
26946;SDS011;14501;52.282;10.560;2023-01-19T03:34:33;9.90;;;5.35;;
26946;SDS011;14501;52.282;10.560;2023-01-19T03:37:01;8.25;;;5.13;;
26946;SDS011;14501;52.282;10.560;2023-01-19T03:39:45;8.73;;;4.90;;
26946;SDS011;14501;52.282;10.560;2023-01-19T03:42:12;7.80;;;5.30;;
26946;SDS011;14501;52.282;10.560;2023-01-19T03:44:40;7.95;;;4.95;;
26946;SDS011;14501;52.282;10.560;2023-01-19T03:47:08;6.60;;;4.40;;
26946;SDS011;14501;52.282;10.560;2023-01-19T03:49:35;8.52;;;5.40;;
26946;SDS011;14501;52.282;10.560;2023-01-19T03:52:03;11.07;;;4.60;;
26946;SDS011;14501;52.282;10.560;2023-01-19T03:54:29;8.30;;;5.25;;
26946;SDS011;14501;52.282;10.560;2023-01-19T03:56:55;8.98;;;5.45;;
26946;SDS011;14501;52.282;10.560;2023-01-19T03:59:21;13.98;;;5.82;;
26946;SDS011;14501;52.282;10.560;2023-01-19T04:01:46;11.52;;;5.25;;
26946;SDS011;14501;52.282;10.560;2023-01-19T04:04:12;9.40;;;5.40;;
26946;SDS011;14501;52.282;10.560;2023-01-19T04:06:39;10.85;;;6.30;;
26946;SDS011;14501;52.282;10.560;2023-01-19T04:09:05;13.15;;;6.05;;
26946;SDS011;14501;52.282;10.560;2023-01-19T04:11:31;9.40;;;5.63;;
26946;SDS011;14501;52.282;10.560;2023-01-19T04:13:56;13.43;;;5.80;;
26946;SDS011;14501;52.282;10.560;2023-01-19T04:16:22;12.75;;;5.80;;
26946;SDS011;14501;52.282;10.560;2023-01-19T04:18:48;9.40;;;6.15;;
26946;SDS011;14501;52.282;10.560;2023-01-19T04:21:14;8.13;;;6.07;;
26946;SDS011;14501;52.282;10.560;2023-01-19T04:23:40;10.73;;;5.40;;
26946;SDS011;14501;52.282;10.560;2023-01-19T04:26:08;16.02;;;5.93;;
26946;SDS011;14501;52.282;10.560;2023-01-19T04:28:34;9.65;;;5.75;;
26946;SDS011;14501;52.282;10.560;2023-01-19T04:31:01;7.57;;;5.45;;
26946;SDS011;14501;52.282;10.560;2023-01-19T04:33:27;11.82;;;5.60;;
26946;SDS011;14501;52.282;10.560;2023-01-19T04:35:53;8.10;;;5.38;;
26946;SDS011;14501;52.282;10.560;2023-01-19T04:38:20;9.65;;;5.88;;
26946;SDS011;14501;52.282;10.560;2023-01-19T04:40:47;8.55;;;5.40;;
26946;SDS011;14501;52.282;10.560;2023-01-19T04:43:14;9.10;;;5.63;;
26946;SDS011;14501;52.282;10.560;2023-01-19T04:45:39;9.13;;;5.15;;
26946;SDS011;14501;52.282;10.560;2023-01-19T04:48:05;11.20;;;5.30;;
26946;SDS011;14501;52.282;10.560;2023-01-19T04:50:31;7.45;;;5.03;;
26946;SDS011;14501;52.282;10.560;2023-01-19T04:52:57;9.35;;;5.53;;
26946;SDS011;14501;52.282;10.560;2023-01-19T04:55:22;9.43;;;5.20;;
26946;SDS011;14501;52.282;10.560;2023-01-19T04:57:48;9.95;;;5.03;;
26946;SDS011;14501;52.282;10.560;2023-01-19T05:00:14;10.25;;;5.55;;
26946;SDS011;14501;52.282;10.560;2023-01-19T05:02:41;10.65;;;5.63;;
26946;SDS011;14501;52.282;10.560;2023-01-19T05:05:09;9.35;;;5.45;;
26946;SDS011;14501;52.282;10.560;2023-01-19T05:07:35;9.02;;;5.00;;
26946;SDS011;14501;52.282;10.560;2023-01-19T05:10:01;8.77;;;5.55;;
26946;SDS011;14501;52.282;10.560;2023-01-19T05:12:27;9.18;;;6.18;;
26946;SDS011;14501;52.282;10.560;2023-01-19T05:14:52;13.05;;;5.93;;
26946;SDS011;14501;52.282;10.560;2023-01-19T05:17:18;11.05;;;6.38;;
26946;SDS011;14501;52.282;10.560;2023-01-19T05:19:44;12.20;;;6.13;;
26946;SDS011;14501;52.282;10.560;2023-01-19T05:22:09;10.13;;;6.22;;
26946;SDS011;14501;52.282;10.560;2023-01-19T05:24:35;8.30;;;5.88;;
26946;SDS011;14501;52.282;10.560;2023-01-19T05:27:00;10.98;;;6.20;;
26946;SDS011;14501;52.282;10.560;2023-01-19T05:29:26;10.07;;;6.60;;
26946;SDS011;14501;52.282;10.560;2023-01-19T05:31:52;12.73;;;6.78;;
26946;SDS011;14501;52.282;10.560;2023-01-19T05:34:17;10.45;;;7.30;;
26946;SDS011;14501;52.282;10.560;2023-01-19T05:36:43;11.48;;;6.28;;
26946;SDS011;14501;52.282;10.560;2023-01-19T05:39:08;13.93;;;8.18;;
26946;SDS011;14501;52.282;10.560;2023-01-19T05:41:34;15.75;;;8.77;;
26946;SDS011;14501;52.282;10.560;2023-01-19T05:44:00;16.00;;;7.30;;
26946;SDS011;14501;52.282;10.560;2023-01-19T05:46:26;10.98;;;6.53;;
26946;SDS011;14501;52.282;10.560;2023-01-19T05:48:52;10.95;;;6.80;;
26946;SDS011;14501;52.282;10.560;2023-01-19T05:51:17;9.63;;;6.40;;
26946;SDS011;14501;52.282;10.560;2023-01-19T05:53:43;12.45;;;6.00;;
26946;SDS011;14501;52.282;10.560;2023-01-19T05:56:09;13.15;;;6.40;;
26946;SDS011;14501;52.282;10.560;2023-01-19T05:58:35;9.88;;;5.93;;
26946;SDS011;14501;52.282;10.560;2023-01-19T06:01:06;15.80;;;6.00;;
26946;SDS011;14501;52.282;10.560;2023-01-19T06:03:34;11.25;;;5.60;;
26946;SDS011;14501;52.282;10.560;2023-01-19T06:06:01;7.38;;;5.63;;
26946;SDS011;14501;52.282;10.560;2023-01-19T06:08:27;9.95;;;6.03;;
26946;SDS011;14501;52.282;10.560;2023-01-19T06:10:53;9.70;;;5.70;;
26946;SDS011;14501;52.282;10.560;2023-01-19T06:13:19;9.30;;;5.50;;
26946;SDS011;14501;52.282;10.560;2023-01-19T06:15:45;8.30;;;4.90;;
26946;SDS011;14501;52.282;10.560;2023-01-19T06:18:11;8.98;;;5.20;;
26946;SDS011;14501;52.282;10.560;2023-01-19T06:20:38;10.65;;;5.50;;
26946;SDS011;14501;52.282;10.560;2023-01-19T06:23:04;9.13;;;5.80;;
26946;SDS011;14501;52.282;10.560;2023-01-19T06:25:30;11.85;;;5.88;;
26946;SDS011;14501;52.282;10.560;2023-01-19T06:27:56;10.52;;;5.80;;
26946;SDS011;14501;52.282;10.560;2023-01-19T06:30:22;11.18;;;6.03;;
26946;SDS011;14501;52.282;10.560;2023-01-19T06:32:47;11.35;;;6.55;;
26946;SDS011;14501;52.282;10.560;2023-01-19T06:35:13;14.18;;;6.53;;
26946;SDS011;14501;52.282;10.560;2023-01-19T06:37:39;10.38;;;6.07;;
26946;SDS011;14501;52.282;10.560;2023-01-19T06:40:05;9.00;;;5.78;;
26946;SDS011;14501;52.282;10.560;2023-01-19T06:42:31;11.18;;;6.53;;
26946;SDS011;14501;52.282;10.560;2023-01-19T06:44:57;10.82;;;6.20;;
26946;SDS011;14501;52.282;10.560;2023-01-19T06:47:23;13.35;;;5.90;;
26946;SDS011;14501;52.282;10.560;2023-01-19T06:49:49;11.85;;;5.70;;
26946;SDS011;14501;52.282;10.560;2023-01-19T06:52:14;12.27;;;6.10;;
26946;SDS011;14501;52.282;10.560;2023-01-19T06:54:41;17.83;;;6.55;;
26946;SDS011;14501;52.282;10.560;2023-01-19T06:57:08;10.77;;;5.97;;
26946;SDS011;14501;52.282;10.560;2023-01-19T06:59:35;7.88;;;5.35;;
26946;SDS011;14501;52.282;10.560;2023-01-19T07:02:01;10.93;;;5.78;;
26946;SDS011;14501;52.282;10.560;2023-01-19T07:04:27;9.80;;;5.32;;
26946;SDS011;14501;52.282;10.560;2023-01-19T07:06:53;9.32;;;5.85;;
26946;SDS011;14501;52.282;10.560;2023-01-19T07:09:18;9.30;;;5.90;;
26946;SDS011;14501;52.282;10.560;2023-01-19T07:11:44;12.15;;;6.63;;
26946;SDS011;14501;52.282;10.560;2023-01-19T07:14:10;8.70;;;5.80;;
26946;SDS011;14501;52.282;10.560;2023-01-19T07:16:36;8.27;;;5.93;;
26946;SDS011;14501;52.282;10.560;2023-01-19T07:19:01;11.52;;;6.03;;
26946;SDS011;14501;52.282;10.560;2023-01-19T07:21:27;12.23;;;6.13;;
26946;SDS011;14501;52.282;10.560;2023-01-19T07:23:53;8.15;;;5.25;;
26946;SDS011;14501;52.282;10.560;2023-01-19T07:26:18;11.43;;;6.22;;
26946;SDS011;14501;52.282;10.560;2023-01-19T07:28:45;9.82;;;6.05;;
26946;SDS011;14501;52.282;10.560;2023-01-19T07:31:11;9.15;;;5.72;;
26946;SDS011;14501;52.282;10.560;2023-01-19T07:33:37;9.85;;;5.85;;
26946;SDS011;14501;52.282;10.560;2023-01-19T07:36:02;15.55;;;6.22;;
26946;SDS011;14501;52.282;10.560;2023-01-19T07:38:28;7.90;;;5.35;;
26946;SDS011;14501;52.282;10.560;2023-01-19T07:41:00;9.60;;;5.88;;
26946;SDS011;14501;52.282;10.560;2023-01-19T07:43:27;11.82;;;5.53;;
26946;SDS011;14501;52.282;10.560;2023-01-19T07:45:56;12.68;;;5.93;;
26946;SDS011;14501;52.282;10.560;2023-01-19T07:48:22;11.55;;;5.80;;
26946;SDS011;14501;52.282;10.560;2023-01-19T07:50:48;10.73;;;5.82;;
26946;SDS011;14501;52.282;10.560;2023-01-19T07:53:13;6.85;;;5.25;;
26946;SDS011;14501;52.282;10.560;2023-01-19T07:55:39;9.70;;;5.35;;
26946;SDS011;14501;52.282;10.560;2023-01-19T07:58:04;8.82;;;5.43;;
26946;SDS011;14501;52.282;10.560;2023-01-19T08:00:31;15.23;;;5.45;;
26946;SDS011;14501;52.282;10.560;2023-01-19T08:02:58;12.88;;;5.70;;
26946;SDS011;14501;52.282;10.560;2023-01-19T08:05:25;10.07;;;5.85;;
26946;SDS011;14501;52.282;10.560;2023-01-19T08:07:53;8.77;;;6.30;;
26946;SDS011;14501;52.282;10.560;2023-01-19T08:10:21;10.93;;;5.25;;
26946;SDS011;14501;52.282;10.560;2023-01-19T08:12:50;8.90;;;5.05;;
26946;SDS011;14501;52.282;10.560;2023-01-19T08:15:20;7.72;;;5.20;;
26946;SDS011;14501;52.282;10.560;2023-01-19T08:17:57;9.70;;;4.85;;
26946;SDS011;14501;52.282;10.560;2023-01-19T08:20:29;8.35;;;4.70;;
26946;SDS011;14501;52.282;10.560;2023-01-19T08:22:56;6.97;;;4.60;;
26946;SDS011;14501;52.282;10.560;2023-01-19T08:25:47;7.43;;;4.40;;
26946;SDS011;14501;52.282;10.560;2023-01-19T08:28:13;7.10;;;4.05;;
26946;SDS011;14501;52.282;10.560;2023-01-19T08:30:40;6.38;;;3.67;;
26946;SDS011;14501;52.282;10.560;2023-01-19T08:33:08;5.10;;;4.38;;
26946;SDS011;14501;52.282;10.560;2023-01-19T08:35:35;5.95;;;3.72;;
26946;SDS011;14501;52.282;10.560;2023-01-19T08:38:06;5.45;;;4.18;;
26946;SDS011;14501;52.282;10.560;2023-01-19T08:40:34;10.23;;;3.88;;
26946;SDS011;14501;52.282;10.560;2023-01-19T08:43:08;8.23;;;4.13;;
26946;SDS011;14501;52.282;10.560;2023-01-19T08:45:36;7.55;;;4.63;;
26946;SDS011;14501;52.282;10.560;2023-01-19T08:48:05;10.43;;;4.60;;
26946;SDS011;14501;52.282;10.560;2023-01-19T08:50:31;11.15;;;4.35;;
26946;SDS011;14501;52.282;10.560;2023-01-19T08:52:58;6.18;;;4.03;;
26946;SDS011;14501;52.282;10.560;2023-01-19T08:55:25;7.45;;;3.80;;
26946;SDS011;14501;52.282;10.560;2023-01-19T08:57:53;6.03;;;4.00;;
26946;SDS011;14501;52.282;10.560;2023-01-19T09:00:21;7.90;;;4.30;;
26946;SDS011;14501;52.282;10.560;2023-01-19T09:02:47;7.07;;;4.20;;
26946;SDS011;14501;52.282;10.560;2023-01-19T09:05:13;6.85;;;4.25;;
26946;SDS011;14501;52.282;10.560;2023-01-19T09:07:39;8.85;;;4.50;;
26946;SDS011;14501;52.282;10.560;2023-01-19T09:10:05;6.50;;;4.15;;
26946;SDS011;14501;52.282;10.560;2023-01-19T09:12:31;9.40;;;3.88;;
26946;SDS011;14501;52.282;10.560;2023-01-19T09:14:57;6.25;;;3.33;;
26946;SDS011;14501;52.282;10.560;2023-01-19T09:17:22;5.25;;;3.60;;
26946;SDS011;14501;52.282;10.560;2023-01-19T09:19:49;4.32;;;2.85;;
26946;SDS011;14501;52.282;10.560;2023-01-19T09:22:15;5.75;;;3.72;;
26946;SDS011;14501;52.282;10.560;2023-01-19T09:24:40;8.40;;;3.78;;
26946;SDS011;14501;52.282;10.560;2023-01-19T09:27:06;6.63;;;3.63;;
26946;SDS011;14501;52.282;10.560;2023-01-19T09:29:31;12.55;;;4.60;;
26946;SDS011;14501;52.282;10.560;2023-01-19T09:31:57;6.10;;;3.75;;
26946;SDS011;14501;52.282;10.560;2023-01-19T09:34:22;7.82;;;4.07;;
26946;SDS011;14501;52.282;10.560;2023-01-19T09:36:52;8.77;;;4.15;;
26946;SDS011;14501;52.282;10.560;2023-01-19T09:39:18;4.97;;;4.03;;
26946;SDS011;14501;52.282;10.560;2023-01-19T09:41:45;8.48;;;4.30;;
26946;SDS011;14501;52.282;10.560;2023-01-19T09:44:19;8.90;;;4.43;;
26946;SDS011;14501;52.282;10.560;2023-01-19T09:46:57;6.55;;;4.57;;
26946;SDS011;14501;52.282;10.560;2023-01-19T09:49:30;7.90;;;4.30;;
26946;SDS011;14501;52.282;10.560;2023-01-19T09:52:00;9.27;;;5.00;;
26946;SDS011;14501;52.282;10.560;2023-01-19T09:54:38;8.73;;;4.95;;
26946;SDS011;14501;52.282;10.560;2023-01-19T09:57:09;7.03;;;4.50;;
26946;SDS011;14501;52.282;10.560;2023-01-19T09:59:36;8.85;;;5.05;;
26946;SDS011;14501;52.282;10.560;2023-01-19T10:07:22;9.68;;;5.30;;
26946;SDS011;14501;52.282;10.560;2023-01-19T10:10:06;10.00;;;5.53;;
26946;SDS011;14501;52.282;10.560;2023-01-19T10:18:24;7.93;;;5.15;;
26946;SDS011;14501;52.282;10.560;2023-01-19T10:21:03;8.63;;;4.90;;
26946;SDS011;14501;52.282;10.560;2023-01-19T10:23:38;9.23;;;5.28;;
26946;SDS011;14501;52.282;10.560;2023-01-19T10:29:22;7.75;;;5.00;;
26946;SDS011;14501;52.282;10.560;2023-01-19T10:32:00;6.85;;;4.50;;
26946;SDS011;14501;52.282;10.560;2023-01-19T10:34:36;7.53;;;4.57;;
26946;SDS011;14501;52.282;10.560;2023-01-19T10:39:43;8.75;;;4.95;;
26946;SDS011;14501;52.282;10.560;2023-01-19T10:42:14;9.25;;;4.95;;
26946;SDS011;14501;52.282;10.560;2023-01-19T10:44:43;9.05;;;4.57;;
26946;SDS011;14501;52.282;10.560;2023-01-19T10:47:16;6.53;;;4.93;;
26946;SDS011;14501;52.282;10.560;2023-01-19T10:49:43;7.50;;;5.03;;
26946;SDS011;14501;52.282;10.560;2023-01-19T10:52:23;8.30;;;4.93;;
26946;SDS011;14501;52.282;10.560;2023-01-19T10:54:59;8.57;;;4.65;;
26946;SDS011;14501;52.282;10.560;2023-01-19T10:57:27;10.80;;;5.45;;
26946;SDS011;14501;52.282;10.560;2023-01-19T10:59:55;8.20;;;5.45;;
26946;SDS011;14501;52.282;10.560;2023-01-19T11:02:28;8.95;;;4.63;;
26946;SDS011;14501;52.282;10.560;2023-01-19T11:04:56;10.82;;;5.40;;
26946;SDS011;14501;52.282;10.560;2023-01-19T11:12:39;10.85;;;4.57;;
26946;SDS011;14501;52.282;10.560;2023-01-19T11:15:20;8.32;;;4.80;;
26946;SDS011;14501;52.282;10.560;2023-01-19T11:17:47;10.40;;;4.95;;
26946;SDS011;14501;52.282;10.560;2023-01-19T11:20:57;6.20;;;4.25;;
26946;SDS011;14501;52.282;10.560;2023-01-19T11:25:47;9.18;;;4.60;;
26946;SDS011;14501;52.282;10.560;2023-01-19T11:28:21;8.05;;;5.15;;
26946;SDS011;14501;52.282;10.560;2023-01-19T11:30:56;7.47;;;5.18;;
26946;SDS011;14501;52.282;10.560;2023-01-19T11:38:55;7.88;;;5.47;;
26946;SDS011;14501;52.282;10.560;2023-01-19T11:41:32;7.13;;;4.82;;
26946;SDS011;14501;52.282;10.560;2023-01-19T11:44:15;5.97;;;4.63;;
26946;SDS011;14501;52.282;10.560;2023-01-19T11:46:55;6.97;;;4.80;;
26946;SDS011;14501;52.282;10.560;2023-01-19T11:52:21;9.73;;;5.05;;
26946;SDS011;14501;52.282;10.560;2023-01-19T11:55:11;6.68;;;4.65;;
26946;SDS011;14501;52.282;10.560;2023-01-19T11:57:42;7.10;;;4.70;;
26946;SDS011;14501;52.282;10.560;2023-01-19T12:00:18;6.78;;;4.78;;
26946;SDS011;14501;52.282;10.560;2023-01-19T12:03:04;6.43;;;4.72;;
26946;SDS011;14501;52.282;10.560;2023-01-19T12:05:45;6.30;;;4.78;;
26946;SDS011;14501;52.282;10.560;2023-01-19T12:08:17;6.88;;;4.57;;
26946;SDS011;14501;52.282;10.560;2023-01-19T12:10:46;8.73;;;4.93;;
26946;SDS011;14501;52.282;10.560;2023-01-19T12:13:19;7.70;;;5.00;;
26946;SDS011;14501;52.282;10.560;2023-01-19T12:15:46;6.07;;;4.93;;
26946;SDS011;14501;52.282;10.560;2023-01-19T12:18:21;8.55;;;5.18;;
26946;SDS011;14501;52.282;10.560;2023-01-19T12:20:52;7.38;;;4.97;;
26946;SDS011;14501;52.282;10.560;2023-01-19T12:23:24;8.13;;;5.40;;
26946;SDS011;14501;52.282;10.560;2023-01-19T12:28:41;9.05;;;5.90;;
26946;SDS011;14501;52.282;10.560;2023-01-19T12:31:11;7.35;;;5.05;;
26946;SDS011;14501;52.282;10.560;2023-01-19T12:33:40;10.07;;;5.78;;
26946;SDS011;14501;52.282;10.560;2023-01-19T12:38:42;10.00;;;5.10;;
26946;SDS011;14501;52.282;10.560;2023-01-19T12:41:18;9.32;;;5.22;;
26946;SDS011;14501;52.282;10.560;2023-01-19T12:43:45;7.30;;;5.22;;
26946;SDS011;14501;52.282;10.560;2023-01-19T12:46:54;8.55;;;4.85;;
26946;SDS011;14501;52.282;10.560;2023-01-19T12:49:33;8.70;;;5.38;;
26946;SDS011;14501;52.282;10.560;2023-01-19T12:52:22;6.97;;;4.38;;
26946;SDS011;14501;52.282;10.560;2023-01-19T12:57:24;7.75;;;4.90;;
26946;SDS011;14501;52.282;10.560;2023-01-19T12:59:58;6.72;;;4.38;;
26946;SDS011;14501;52.282;10.560;2023-01-19T13:02:54;7.70;;;4.50;;
26946;SDS011;14501;52.282;10.560;2023-01-19T13:15:49;8.13;;;4.68;;
26946;SDS011;14501;52.282;10.560;2023-01-19T13:18:26;7.57;;;4.63;;
26946;SDS011;14501;52.282;10.560;2023-01-19T13:21:01;7.18;;;4.70;;
26946;SDS011;14501;52.282;10.560;2023-01-19T13:26:16;5.45;;;4.40;;
26946;SDS011;14501;52.282;10.560;2023-01-19T13:28:44;6.55;;;4.85;;
26946;SDS011;14501;52.282;10.560;2023-01-19T13:31:13;6.70;;;4.80;;
26946;SDS011;14501;52.282;10.560;2023-01-19T13:33:55;7.82;;;5.40;;
26946;SDS011;14501;52.282;10.560;2023-01-19T13:36:36;6.65;;;4.65;;
26946;SDS011;14501;52.282;10.560;2023-01-19T13:39:06;6.93;;;5.10;;
26946;SDS011;14501;52.282;10.560;2023-01-19T13:41:57;9.35;;;5.68;;
26946;SDS011;14501;52.282;10.560;2023-01-19T13:44:34;10.27;;;4.88;;
26946;SDS011;14501;52.282;10.560;2023-01-19T13:47:03;6.45;;;5.05;;
26946;SDS011;14501;52.282;10.560;2023-01-19T13:49:40;10.15;;;5.32;;
26946;SDS011;14501;52.282;10.560;2023-01-19T13:52:13;8.32;;;5.30;;
26946;SDS011;14501;52.282;10.560;2023-01-19T13:54:50;7.05;;;5.32;;
26946;SDS011;14501;52.282;10.560;2023-01-19T14:00:19;7.50;;;5.72;;
26946;SDS011;14501;52.282;10.560;2023-01-19T14:10:33;7.72;;;5.40;;
26946;SDS011;14501;52.282;10.560;2023-01-19T14:13:00;7.80;;;5.07;;
26946;SDS011;14501;52.282;10.560;2023-01-19T14:15:28;7.03;;;4.95;;
26946;SDS011;14501;52.282;10.560;2023-01-19T14:29:27;7.45;;;5.22;;
26946;SDS011;14501;52.282;10.560;2023-01-19T14:34:43;6.50;;;4.78;;
26946;SDS011;14501;52.282;10.560;2023-01-19T14:37:27;9.07;;;5.30;;
26946;SDS011;14501;52.282;10.560;2023-01-19T14:42:30;10.30;;;5.45;;
26946;SDS011;14501;52.282;10.560;2023-01-19T14:45:02;8.13;;;5.05;;
26946;SDS011;14501;52.282;10.560;2023-01-19T14:47:40;8.60;;;5.80;;
26946;SDS011;14501;52.282;10.560;2023-01-19T14:50:16;7.22;;;5.65;;
26946;SDS011;14501;52.282;10.560;2023-01-19T14:52:53;9.20;;;5.97;;
26946;SDS011;14501;52.282;10.560;2023-01-19T14:55:45;9.13;;;5.68;;
26946;SDS011;14501;52.282;10.560;2023-01-19T14:58:15;7.45;;;5.90;;
26946;SDS011;14501;52.282;10.560;2023-01-19T15:00:43;7.95;;;5.40;;
26946;SDS011;14501;52.282;10.560;2023-01-19T15:03:10;10.20;;;5.97;;
26946;SDS011;14501;52.282;10.560;2023-01-19T15:05:36;8.77;;;5.68;;
26946;SDS011;14501;52.282;10.560;2023-01-19T15:08:02;8.65;;;6.25;;
26946;SDS011;14501;52.282;10.560;2023-01-19T15:10:29;9.18;;;5.90;;
26946;SDS011;14501;52.282;10.560;2023-01-19T15:12:55;8.98;;;5.68;;
26946;SDS011;14501;52.282;10.560;2023-01-19T15:15:23;11.38;;;6.30;;
26946;SDS011;14501;52.282;10.560;2023-01-19T15:17:53;10.77;;;5.80;;
26946;SDS011;14501;52.282;10.560;2023-01-19T15:20:20;8.00;;;5.70;;
26946;SDS011;14501;52.282;10.560;2023-01-19T15:22:47;8.50;;;5.88;;
26946;SDS011;14501;52.282;10.560;2023-01-19T15:25:21;13.18;;;6.95;;
26946;SDS011;14501;52.282;10.560;2023-01-19T15:27:50;11.77;;;7.00;;
26946;SDS011;14501;52.282;10.560;2023-01-19T15:30:20;10.95;;;6.68;;
26946;SDS011;14501;52.282;10.560;2023-01-19T15:33:00;10.20;;;6.45;;
26946;SDS011;14501;52.282;10.560;2023-01-19T15:35:26;9.82;;;6.13;;
26946;SDS011;14501;52.282;10.560;2023-01-19T15:37:52;13.27;;;6.22;;
26946;SDS011;14501;52.282;10.560;2023-01-19T15:40:18;9.13;;;6.18;;
26946;SDS011;14501;52.282;10.560;2023-01-19T15:42:44;10.93;;;6.15;;
26946;SDS011;14501;52.282;10.560;2023-01-19T15:45:16;12.68;;;6.50;;
26946;SDS011;14501;52.282;10.560;2023-01-19T15:47:58;13.10;;;6.22;;
26946;SDS011;14501;52.282;10.560;2023-01-19T15:50:32;11.93;;;7.13;;
26946;SDS011;14501;52.282;10.560;2023-01-19T15:53:00;11.68;;;6.45;;
26946;SDS011;14501;52.282;10.560;2023-01-19T15:55:25;11.77;;;6.63;;
26946;SDS011;14501;52.282;10.560;2023-01-19T15:57:51;10.75;;;6.00;;
26946;SDS011;14501;52.282;10.560;2023-01-19T16:00:17;10.88;;;6.88;;
26946;SDS011;14501;52.282;10.560;2023-01-19T16:02:43;13.52;;;6.22;;
26946;SDS011;14501;52.282;10.560;2023-01-19T16:05:26;10.38;;;6.65;;
26946;SDS011;14501;52.282;10.560;2023-01-19T16:07:52;12.20;;;6.47;;
26946;SDS011;14501;52.282;10.560;2023-01-19T16:10:18;13.90;;;6.65;;
26946;SDS011;14501;52.282;10.560;2023-01-19T16:12:44;12.77;;;6.63;;
26946;SDS011;14501;52.282;10.560;2023-01-19T16:15:11;10.38;;;5.72;;
26946;SDS011;14501;52.282;10.560;2023-01-19T16:17:38;12.02;;;5.55;;
26946;SDS011;14501;52.282;10.560;2023-01-19T16:20:04;12.43;;;6.28;;
26946;SDS011;14501;52.282;10.560;2023-01-19T16:22:30;11.02;;;6.35;;
26946;SDS011;14501;52.282;10.560;2023-01-19T16:24:56;13.00;;;6.60;;
26946;SDS011;14501;52.282;10.560;2023-01-19T16:27:22;12.07;;;6.93;;
26946;SDS011;14501;52.282;10.560;2023-01-19T16:29:48;12.40;;;7.28;;
26946;SDS011;14501;52.282;10.560;2023-01-19T16:32:14;10.77;;;6.15;;
26946;SDS011;14501;52.282;10.560;2023-01-19T16:34:39;12.98;;;6.78;;